Aviation Digital Data Service (ADDS)

Output produced by TAFs form (0930 UTC 25 November 2017)
found at http://www.aviationweather.gov/adds/tafs/
 
METAR text: RJCW 250900Z 26026KT 1600 R08/0800VP2000D -SHSN BLSN FEW007 SCT015 BKN030 M05/M08 Q1015
Conditions at: RJCW (WAKKANAI AIRPORT, JP) observed 0900 UTC 25 November 2017
Temperature: -5.0°C (23°F)
Dewpoint: -8.0°C (18°F) [RH = 79%]
Pressure (altimeter): 29.97 inches Hg (1015.0 mb)
Winds: from the W (260 degrees) at 30 MPH (26 knots; 13.5 m/s)
Visibility: 0.99 miles (1.59 km)
Ceiling: 3000 feet AGL
Clouds: few clouds at 700 feet AGL
scattered clouds at 1500 feet AGL
broken clouds at 3000 feet AGL
Weather: BLSN -SHSN  (blowing snow, light snow showers)